createdAt,value
2017-11-15T00:01:56.705Z,190.03
2017-11-15T00:04:24.347Z,179.23
2017-11-15T00:06:51.870Z,208.87
2017-11-15T00:09:19.489Z,164.40
2017-11-15T00:11:47.042Z,135.90
2017-11-15T00:14:14.966Z,135.90
2017-11-15T00:16:42.506Z,123.57
2017-11-15T00:19:10.052Z,115.23
2017-11-15T00:21:37.938Z,118.23
2017-11-15T00:24:05.461Z,112.93
2017-11-15T00:26:32.982Z,127.83
2017-11-15T00:29:00.652Z,123.07
2017-11-15T00:31:28.173Z,115.47
2017-11-15T00:33:55.710Z,119.00
2017-11-15T00:36:23.356Z,102.70
2017-11-15T00:38:50.922Z,127.80
2017-11-15T00:41:18.445Z,119.87
2017-11-15T00:43:46.012Z,128.40
2017-11-15T00:46:13.537Z,117.00
2017-11-15T00:48:41.090Z,128.60
2017-11-15T00:51:09.088Z,114.73
2017-11-15T00:53:36.635Z,116.30
2017-11-15T00:56:04.156Z,122.40
2017-11-15T00:58:31.712Z,117.83
2017-11-15T01:00:59.240Z,99.27
2017-11-15T01:03:26.912Z,108.00
2017-11-15T01:05:54.451Z,111.07
2017-11-15T01:08:21.971Z,112.40
2017-11-15T01:10:49.531Z,96.33
2017-11-15T01:13:17.082Z,122.97
2017-11-15T01:15:44.622Z,120.90
2017-11-15T01:18:12.590Z,117.43
2017-11-15T01:20:40.120Z,116.90
2017-11-15T01:23:07.687Z,128.00
2017-11-15T01:25:35.350Z,126.30
2017-11-15T01:28:02.879Z,132.93
2017-11-15T01:30:30.405Z,130.10
2017-11-15T01:32:58.088Z,179.23
2017-11-15T01:35:25.622Z,157.07
2017-11-15T01:37:53.166Z,140.80
2017-11-15T01:40:20.722Z,187.60
2017-11-15T01:42:48.262Z,162.83
2017-11-15T01:45:15.814Z,159.77
2017-11-15T01:47:44.358Z,180.23
2017-11-15T01:50:12.250Z,191.93
2017-11-15T01:52:39.775Z,214.30
2017-11-15T01:55:07.315Z,218.67
2017-11-15T01:57:34.881Z,174.13
2017-11-15T02:00:02.438Z,164.83
2017-11-15T02:02:29.993Z,195.77
2017-11-15T02:04:57.575Z,213.73
2017-11-15T02:07:25.170Z,208.40
2017-11-15T02:09:52.719Z,255.37
2017-11-15T02:12:20.293Z,196.73
2017-11-15T02:14:47.839Z,249.93
2017-11-15T02:17:15.425Z,251.47
2017-11-15T02:19:42.971Z,243.47
2017-11-15T02:22:10.517Z,220.67
2017-11-15T02:24:38.086Z,210.33
2017-11-15T02:27:05.669Z,224.00
2017-11-15T02:29:33.205Z,199.50
2017-11-15T02:32:01.231Z,295.83
2017-11-15T02:34:28.790Z,242.90
2017-11-15T02:36:56.326Z,252.77
2017-11-15T02:39:24.043Z,203.20
2017-11-15T02:41:51.591Z,179.33
2017-11-15T02:44:19.139Z,201.00
2017-11-15T02:46:46.813Z,210.57
2017-11-15T02:49:14.371Z,230.27
2017-11-15T02:51:41.927Z,200.50
2017-11-15T02:54:09.489Z,204.63
2017-11-15T02:56:37.077Z,236.87
2017-11-15T02:59:04.608Z,236.30
2017-11-15T03:01:32.166Z,257.23
2017-11-15T03:03:59.826Z,233.60
2017-11-15T03:06:27.352Z,295.57
2017-11-15T03:08:54.942Z,257.87
2017-11-15T03:11:22.646Z,244.10
2017-11-15T03:13:50.202Z,248.47
2017-11-15T03:16:17.814Z,220.03
2017-11-15T03:18:45.759Z,265.13
2017-11-15T03:21:15.269Z,191.73
2017-11-15T03:23:42.805Z,239.27
2017-11-15T03:26:10.391Z,226.03
2017-11-15T03:28:37.926Z,233.07
2017-11-15T03:31:05.455Z,192.53
2017-11-15T03:33:33.063Z,248.30
2017-11-15T03:36:00.594Z,199.83
2017-11-15T03:38:28.131Z,225.27
2017-11-15T03:40:55.802Z,268.67
2017-11-15T03:43:23.353Z,235.07
2017-11-15T03:45:50.884Z,213.43
2017-11-15T03:48:18.430Z,193.10
2017-11-15T03:50:45.957Z,231.40
2017-11-15T03:53:13.532Z,178.33
2017-11-15T03:55:41.052Z,189.10
2017-11-15T03:58:08.603Z,188.60
2017-11-15T04:00:36.702Z,191.57
2017-11-15T04:03:04.234Z,193.30
2017-11-15T04:05:31.849Z,186.60
2017-11-15T04:07:59.401Z,165.07
2017-11-15T04:10:27.369Z,163.00
2017-11-15T04:12:54.897Z,165.67
2017-11-15T04:15:22.459Z,167.33
2017-11-15T04:17:50.174Z,162.70
2017-11-15T04:20:17.707Z,151.10
2017-11-15T04:22:45.235Z,152.63
2017-11-15T04:25:13.266Z,174.70
2017-11-15T04:27:40.820Z,143.53
2017-11-15T04:30:09.646Z,170.00
2017-11-15T04:32:37.614Z,149.07
2017-11-15T04:35:05.172Z,146.10
2017-11-15T04:37:32.745Z,154.33
2017-11-15T04:40:00.746Z,157.77
2017-11-15T04:42:28.306Z,153.50
2017-11-15T04:44:55.866Z,156.07
2017-11-15T04:47:23.435Z,150.13
2017-11-15T04:49:51.044Z,152.83
2017-11-15T04:52:18.597Z,149.77
2017-11-15T04:54:46.156Z,157.17
2017-11-15T04:57:13.865Z,140.70
2017-11-15T04:59:41.428Z,152.30
2017-11-15T05:02:08.979Z,145.37
2017-11-15T05:04:36.573Z,159.47
2017-11-15T05:07:04.735Z,151.37
2017-11-15T05:09:32.634Z,149.93
2017-11-15T05:12:00.156Z,137.37
2017-11-15T05:14:27.698Z,155.67
2017-11-15T05:16:55.284Z,130.87
2017-11-15T05:19:23.017Z,146.20
2017-11-15T05:21:50.582Z,144.27
2017-11-15T05:24:18.386Z,133.07
2017-11-15T05:26:45.934Z,140.90
2017-11-15T05:29:13.476Z,149.53
2017-11-15T05:31:41.438Z,158.10
2017-11-15T05:34:08.967Z,136.00
2017-11-15T05:36:36.489Z,130.10
2017-11-15T05:39:04.242Z,131.40
2017-11-15T05:41:31.779Z,127.10
2017-11-15T05:43:59.309Z,144.43
2017-11-15T05:46:28.002Z,152.80
2017-11-15T05:48:55.517Z,124.60
2017-11-15T05:51:23.042Z,119.67
2017-11-15T05:53:51.421Z,129.60
2017-11-15T05:56:18.994Z,121.60
2017-11-15T05:58:46.526Z,129.97
2017-11-15T06:01:15.100Z,126.30
2017-11-15T06:05:27.630Z,145.13
2017-11-15T06:07:55.211Z,134.70
2017-11-15T06:10:22.856Z,136.37
2017-11-15T06:12:50.384Z,129.40
2017-11-15T06:15:18.311Z,135.07
2017-11-15T06:17:45.850Z,126.27
2017-11-15T06:20:13.560Z,118.30
2017-11-15T06:22:41.201Z,130.97
2017-11-15T06:25:08.704Z,126.23
2017-11-15T06:27:36.317Z,116.67
2017-11-15T06:30:03.851Z,116.40
2017-11-15T06:32:31.490Z,106.23
2017-11-15T06:34:59.021Z,112.23
2017-11-15T06:37:26.708Z,129.43
2017-11-15T06:39:54.639Z,112.33
2017-11-15T06:42:22.183Z,103.83
2017-11-15T06:44:49.753Z,111.80
2017-11-15T06:47:17.372Z,113.50
2017-11-15T06:49:45.874Z,108.03
2017-11-15T06:52:13.779Z,125.77
2017-11-15T06:54:41.309Z,117.33
2017-11-15T06:57:08.867Z,122.63
2017-11-15T06:59:36.462Z,118.87
2017-11-15T07:02:04.793Z,121.83
2017-11-15T07:04:32.330Z,133.50
2017-11-15T07:06:59.921Z,118.63
2017-11-15T07:09:27.449Z,107.83
2017-11-15T07:11:54.974Z,109.50
2017-11-15T07:14:23.373Z,119.20
2017-11-15T07:16:50.893Z,115.73
2017-11-15T07:19:18.554Z,100.93
2017-11-15T07:21:46.266Z,114.00
2017-11-15T07:24:14.471Z,118.20
2017-11-15T07:26:42.010Z,123.27
2017-11-15T07:29:09.567Z,114.77
2017-11-15T07:31:38.806Z,109.70
2017-11-15T07:34:06.361Z,117.57
2017-11-15T07:36:33.893Z,104.13
2017-11-15T07:39:01.859Z,104.50
2017-11-15T07:41:30.219Z,110.03
2017-11-15T07:43:57.818Z,109.73
2017-11-15T07:46:25.411Z,104.57
2017-11-15T07:48:53.208Z,106.70
2017-11-15T07:51:20.861Z,108.17
2017-11-15T07:53:48.453Z,111.50
2017-11-15T07:56:15.982Z,111.10
2017-11-15T07:58:44.246Z,118.30
2017-11-15T08:01:11.823Z,111.03
2017-11-15T08:03:39.357Z,104.47
2017-11-15T08:06:07.702Z,113.23
2017-11-15T08:08:35.278Z,115.87
2017-11-15T08:11:03.509Z,108.87
2017-11-15T08:13:31.114Z,115.63
2017-11-15T08:15:58.649Z,133.50
2017-11-15T08:18:26.180Z,124.50
2017-11-15T08:20:53.819Z,127.83
2017-11-15T08:23:21.352Z,129.47
2017-11-15T08:25:48.929Z,124.03
2017-11-15T08:28:16.449Z,124.07
2017-11-15T08:30:43.978Z,120.47
2017-11-15T08:33:11.634Z,132.07
2017-11-15T08:35:39.182Z,132.70
2017-11-15T08:38:06.793Z,119.53
2017-11-15T08:40:34.377Z,113.47
2017-11-15T08:43:02.739Z,143.73
2017-11-15T08:45:30.288Z,125.57
2017-11-15T08:47:58.257Z,110.80
2017-11-15T08:50:25.785Z,122.70
2017-11-15T08:52:53.330Z,116.77
2017-11-15T08:55:21.305Z,134.83
2017-11-15T08:57:48.838Z,105.13
2017-11-15T09:00:16.387Z,112.97
2017-11-15T09:02:44.273Z,112.23
2017-11-15T09:05:11.793Z,117.60
2017-11-15T09:07:39.355Z,115.00
2017-11-15T09:10:06.920Z,111.23
2017-11-15T09:12:34.447Z,98.80
2017-11-15T09:15:02.035Z,106.77
2017-11-15T09:17:29.565Z,129.70
2017-11-15T09:19:57.103Z,99.13
2017-11-15T09:22:24.699Z,104.30
2017-11-15T09:24:52.226Z,102.60
2017-11-15T09:27:19.751Z,122.40
2017-11-15T09:29:47.713Z,98.47
2017-11-15T09:32:15.230Z,93.10
2017-11-15T09:34:42.755Z,96.03
2017-11-15T09:37:10.293Z,96.33
2017-11-15T09:39:37.805Z,91.73
2017-11-15T09:42:05.467Z,88.77
2017-11-15T09:44:33.009Z,95.57
2017-11-15T09:47:00.556Z,86.30
2017-11-15T09:49:28.217Z,94.23
2017-11-15T09:51:55.771Z,86.63
2017-11-15T09:54:23.306Z,96.83
2017-11-15T09:56:51.321Z,84.87
2017-11-15T09:59:18.846Z,80.63
2017-11-15T10:01:46.379Z,84.13
2017-11-15T10:04:13.926Z,86.67
2017-11-15T10:06:41.838Z,92.67
2017-11-15T10:09:11.258Z,77.90
2017-11-15T10:11:38.838Z,102.03
2017-11-15T10:14:06.506Z,91.93
2017-11-15T10:16:34.030Z,83.10
2017-11-15T10:19:04.447Z,80.43
2017-11-15T10:21:32.377Z,77.20
2017-11-15T10:23:59.906Z,79.97
2017-11-15T10:26:28.004Z,70.67
2017-11-15T10:28:55.574Z,90.37
2017-11-15T10:31:23.127Z,86.10
2017-11-15T10:33:50.645Z,66.07
2017-11-15T10:36:18.200Z,73.23
2017-11-15T10:38:47.741Z,72.60
2017-11-15T10:41:15.264Z,73.53
2017-11-15T10:43:42.798Z,73.60
2017-11-15T10:46:12.514Z,79.17
2017-11-15T10:48:40.030Z,69.93
2017-11-15T10:51:07.579Z,69.33
2017-11-15T10:53:35.125Z,70.73
2017-11-15T10:56:02.683Z,73.30
2017-11-15T10:58:30.235Z,84.30
2017-11-15T11:00:57.859Z,70.03
2017-11-15T11:03:25.417Z,68.60
2017-11-15T11:05:53.401Z,70.07
2017-11-15T11:08:20.921Z,74.60
2017-11-15T11:10:48.477Z,69.97
2017-11-15T11:13:16.082Z,81.87
2017-11-15T11:15:43.601Z,71.03
2017-11-15T11:18:11.156Z,73.00
2017-11-15T11:20:39.158Z,76.13
2017-11-15T11:23:06.683Z,69.97
2017-11-15T11:25:34.202Z,75.83
2017-11-15T11:28:02.908Z,80.47
2017-11-15T11:30:30.455Z,75.10
2017-11-15T11:32:57.996Z,84.00
2017-11-15T11:35:25.715Z,76.40
2017-11-15T11:37:55.017Z,77.23
2017-11-15T11:40:22.554Z,80.63
2017-11-15T11:42:50.103Z,73.93
2017-11-15T11:45:17.620Z,75.83
2017-11-15T11:47:45.158Z,87.23
2017-11-15T11:50:12.673Z,76.33
2017-11-15T11:52:42.320Z,75.33
2017-11-15T11:55:09.866Z,65.90
2017-11-15T11:57:37.403Z,63.17
2017-11-15T12:00:04.963Z,73.27
2017-11-15T12:02:32.541Z,71.00
2017-11-15T12:05:00.066Z,87.87
2017-11-15T12:07:27.589Z,74.93
2017-11-15T12:09:55.323Z,75.37
2017-11-15T12:12:23.665Z,61.33
2017-11-15T12:14:51.195Z,70.00
2017-11-15T12:17:19.114Z,70.70
2017-11-15T12:19:46.647Z,81.07
2017-11-15T12:22:14.180Z,73.40
2017-11-15T12:24:41.877Z,72.13
2017-11-15T12:27:09.409Z,76.37
2017-11-15T12:29:36.938Z,74.40
2017-11-15T12:32:05.084Z,78.10
2017-11-15T12:34:32.672Z,69.70
2017-11-15T12:37:00.207Z,73.87
2017-11-15T12:39:27.938Z,78.57
2017-11-15T12:41:55.477Z,84.37
2017-11-15T12:44:23.414Z,73.23
2017-11-15T12:46:51.092Z,81.87
2017-11-15T12:49:18.606Z,76.33
2017-11-15T12:51:46.159Z,74.00
2017-11-15T12:54:15.195Z,73.90
2017-11-15T12:56:42.726Z,72.63
2017-11-15T12:59:10.915Z,75.03
2017-11-15T13:01:38.471Z,82.50
2017-11-15T13:04:06.013Z,68.40
2017-11-15T13:06:33.660Z,65.43
2017-11-15T13:09:01.514Z,65.60
2017-11-15T13:11:29.121Z,67.13
2017-11-15T13:13:56.651Z,78.03
2017-11-15T13:16:24.346Z,73.17
2017-11-15T13:18:51.903Z,75.77
2017-11-15T13:21:19.439Z,62.17
2017-11-15T13:23:47.432Z,61.40
2017-11-15T13:26:14.999Z,76.53
2017-11-15T13:28:42.532Z,75.20
2017-11-15T13:31:10.111Z,68.63
2017-11-15T13:33:37.786Z,71.07
2017-11-15T13:36:05.332Z,61.97
2017-11-15T13:38:32.878Z,77.73
2017-11-15T13:41:00.615Z,68.53
2017-11-15T13:43:28.150Z,78.13
2017-11-15T13:45:55.675Z,72.50
2017-11-15T13:48:23.280Z,66.90
2017-11-15T13:50:50.812Z,64.63
2017-11-15T13:53:18.338Z,69.10
2017-11-15T13:55:45.926Z,65.60
2017-11-15T13:58:13.455Z,71.03
2017-11-15T14:00:41.001Z,67.47
2017-11-15T14:03:08.737Z,64.13
2017-11-15T14:05:36.282Z,69.40
2017-11-15T14:08:03.830Z,69.27
2017-11-15T14:12:33.930Z,72.10
2017-11-15T14:15:01.455Z,67.40
2017-11-15T14:17:29.877Z,75.00
2017-11-15T14:19:57.412Z,81.83
2017-11-15T14:22:24.999Z,74.80
2017-11-15T14:24:52.516Z,88.60
2017-11-15T14:27:20.042Z,79.27
2017-11-15T14:29:47.930Z,82.67
2017-11-15T14:32:15.440Z,87.87
2017-11-15T14:34:42.975Z,88.20
2017-11-15T14:37:10.544Z,82.87
2017-11-15T14:39:38.226Z,78.00
2017-11-15T14:42:05.742Z,84.87
2017-11-15T14:44:33.554Z,80.37
2017-11-15T14:47:01.257Z,78.40
2017-11-15T14:49:28.785Z,74.83
2017-11-15T14:51:56.309Z,83.07
2017-11-15T14:54:23.867Z,72.53
2017-11-15T14:56:51.412Z,83.17
2017-11-15T14:59:19.331Z,94.40
2017-11-15T15:01:46.894Z,94.03
2017-11-15T15:04:15.379Z,74.90
2017-11-15T15:06:42.973Z,83.47
2017-11-15T15:09:10.503Z,87.27
2017-11-15T15:11:38.058Z,77.97
2017-11-15T15:14:05.662Z,79.47
2017-11-15T15:16:33.194Z,60.43
2017-11-15T15:19:00.713Z,66.80
2017-11-15T15:21:28.302Z,66.13
2017-11-15T15:23:55.831Z,56.93
2017-11-15T15:26:23.355Z,58.63
2017-11-15T15:28:51.027Z,61.40
2017-11-15T15:31:18.555Z,62.53
2017-11-15T15:33:46.073Z,80.03
2017-11-15T15:36:13.608Z,56.57
2017-11-15T15:38:41.134Z,60.63
2017-11-15T15:41:08.673Z,68.57
2017-11-15T15:43:36.357Z,60.37
2017-11-15T15:46:03.882Z,59.57
2017-11-15T15:48:31.409Z,72.07
2017-11-15T15:50:59.178Z,75.57
2017-11-15T15:53:26.703Z,62.30
2017-11-15T15:55:54.243Z,63.57
2017-11-15T15:58:21.797Z,67.47
2017-11-15T16:00:49.347Z,58.77
2017-11-15T16:03:16.882Z,61.10
2017-11-15T16:05:44.441Z,58.83
2017-11-15T16:08:11.971Z,58.60
2017-11-15T16:10:39.546Z,52.37
2017-11-15T16:13:07.126Z,55.90
2017-11-15T16:15:34.654Z,57.13
2017-11-15T16:18:02.183Z,53.13
2017-11-15T16:20:29.759Z,55.43
2017-11-15T16:22:57.288Z,49.93
2017-11-15T16:25:24.814Z,47.63
2017-11-15T16:27:52.567Z,55.13
2017-11-15T16:30:20.091Z,54.17
2017-11-15T16:32:47.614Z,46.60
2017-11-15T16:35:15.540Z,51.43
2017-11-15T16:37:43.074Z,47.27
2017-11-15T16:40:10.598Z,42.97
2017-11-15T16:42:38.319Z,44.47
2017-11-15T16:45:05.860Z,44.60
2017-11-15T16:47:33.384Z,46.37
2017-11-15T16:50:01.345Z,36.10
2017-11-15T16:52:28.864Z,40.87
2017-11-15T16:54:56.379Z,37.77
2017-11-15T16:57:24.165Z,33.07
2017-11-15T16:59:51.710Z,189.43
2017-11-15T17:02:19.242Z,1058.87
2017-11-15T17:04:46.792Z,465.77
2017-11-15T17:07:14.322Z,120.53
2017-11-15T17:09:41.877Z,227.33
2017-11-15T17:12:09.411Z,451.80
2017-11-15T17:14:36.982Z,54.57
2017-11-15T17:17:04.502Z,44.27
2017-11-15T17:19:32.017Z,42.17
2017-11-15T17:21:59.608Z,41.37
2017-11-15T17:24:27.138Z,43.07
2017-11-15T17:26:54.657Z,56.37
2017-11-15T17:29:22.225Z,36.53
2017-11-15T17:31:50.169Z,43.03
2017-11-15T17:34:17.690Z,37.47
2017-11-15T17:36:45.229Z,45.50
2017-11-15T17:39:13.162Z,39.00
2017-11-15T17:41:40.710Z,44.53
2017-11-15T17:44:08.278Z,46.70
2017-11-15T17:46:35.852Z,46.03
2017-11-15T17:49:03.404Z,50.53
2017-11-15T17:51:30.981Z,40.10
2017-11-15T17:53:58.515Z,44.37
2017-11-15T17:56:26.086Z,47.00
2017-11-15T17:58:53.628Z,45.40
2017-11-15T18:01:21.367Z,47.60
2017-11-15T18:03:48.880Z,51.80
2017-11-15T18:06:16.401Z,46.90
2017-11-15T18:08:44.389Z,49.90
2017-11-15T18:11:11.901Z,58.53
2017-11-15T18:13:39.421Z,57.90
2017-11-15T18:16:07.105Z,48.20
2017-11-15T18:18:34.690Z,53.67
2017-11-15T18:21:02.231Z,57.03
2017-11-15T18:23:29.816Z,53.03
2017-11-15T18:25:57.367Z,48.43
2017-11-15T18:28:24.894Z,46.60
2017-11-15T18:30:53.674Z,51.17
2017-11-15T18:33:21.195Z,55.90
2017-11-15T18:35:48.709Z,50.93
2017-11-15T18:38:16.259Z,69.77
2017-11-15T18:40:43.847Z,106.50
2017-11-15T18:43:11.385Z,406.73
2017-11-15T18:45:38.949Z,95.70
2017-11-15T18:48:06.493Z,277.50
2017-11-15T18:50:34.237Z,344.00
2017-11-15T18:53:01.765Z,102.07
2017-11-15T18:55:29.299Z,98.40
2017-11-15T18:57:56.865Z,98.10
2017-11-15T19:00:24.444Z,77.50
2017-11-15T19:02:51.997Z,65.30
2017-11-15T19:05:19.691Z,69.00
2017-11-15T19:07:47.223Z,58.83
2017-11-15T19:10:14.740Z,50.10
2017-11-15T19:12:42.402Z,51.87
2017-11-15T19:15:09.956Z,54.23
2017-11-15T19:17:37.469Z,54.87
2017-11-15T19:20:05.042Z,64.77
2017-11-15T19:22:32.563Z,59.87
2017-11-15T19:25:00.094Z,54.70
2017-11-15T19:27:28.047Z,71.83
2017-11-15T19:29:55.561Z,48.00
2017-11-15T19:32:23.164Z,52.10
2017-11-15T19:34:50.732Z,53.17
2017-11-15T19:37:18.256Z,45.63
2017-11-15T19:39:45.782Z,49.90
2017-11-15T19:42:13.444Z,59.80
2017-11-15T19:44:40.974Z,48.77
2017-11-15T19:47:08.503Z,46.23
2017-11-15T19:49:36.116Z,45.17
2017-11-15T19:52:03.640Z,47.97
2017-11-15T19:54:31.169Z,48.47
2017-11-15T19:56:59.114Z,45.10
2017-11-15T19:59:26.634Z,44.27
2017-11-15T20:01:54.158Z,36.23
2017-11-15T20:04:21.706Z,46.83
2017-11-15T20:06:49.285Z,51.07
2017-11-15T20:09:16.825Z,47.93
2017-11-15T20:11:44.347Z,43.30
2017-11-15T20:14:11.958Z,51.53
2017-11-15T20:16:39.480Z,41.57
2017-11-15T20:19:06.993Z,42.73
2017-11-15T20:21:34.850Z,43.60
2017-11-15T20:24:02.374Z,40.37
2017-11-15T20:26:29.899Z,43.73
2017-11-15T20:28:57.893Z,39.30
2017-11-15T20:31:25.426Z,41.23
2017-11-15T20:33:52.949Z,43.53
2017-11-15T20:36:20.492Z,36.00
2017-11-15T20:38:48.049Z,37.03
2017-11-15T20:41:15.578Z,38.57
2017-11-15T20:43:43.154Z,36.63
2017-11-15T20:46:10.669Z,36.80
2017-11-15T20:48:38.191Z,37.67
2017-11-15T20:51:05.746Z,37.07
2017-11-15T20:53:33.294Z,38.93
2017-11-15T20:56:00.835Z,54.73
2017-11-15T20:58:28.571Z,39.50
2017-11-15T21:00:56.097Z,33.17
2017-11-15T21:03:23.629Z,35.30
2017-11-15T21:05:51.293Z,39.20
2017-11-15T21:08:18.817Z,43.20
2017-11-15T21:10:46.353Z,36.87
2017-11-15T21:13:13.937Z,41.53
2017-11-15T21:15:41.465Z,36.40
2017-11-15T21:18:08.990Z,43.80
2017-11-15T21:20:36.539Z,35.83
2017-11-15T21:23:04.298Z,34.50
2017-11-15T21:25:31.826Z,37.93
2017-11-15T21:27:59.341Z,34.30
2017-11-15T21:30:27.021Z,36.90
2017-11-15T21:32:54.660Z,35.90
2017-11-15T21:35:22.200Z,31.97
2017-11-15T21:37:49.769Z,33.30
2017-11-15T21:40:17.288Z,29.97
2017-11-15T21:42:44.812Z,36.50
2017-11-15T21:45:12.390Z,36.67
2017-11-15T21:47:39.909Z,36.17
2017-11-15T21:50:07.489Z,32.60
2017-11-15T21:52:35.173Z,40.67
2017-11-15T21:55:02.701Z,34.47
2017-11-15T21:57:30.224Z,41.63
2017-11-15T21:59:57.769Z,37.47
2017-11-15T22:02:25.363Z,40.87
2017-11-15T22:04:52.897Z,34.50
2017-11-15T22:07:20.422Z,36.07
2017-11-15T22:09:48.201Z,36.27
2017-11-15T22:12:15.731Z,48.43
2017-11-15T22:14:43.261Z,47.50
2017-11-15T22:17:11.211Z,45.10
2017-11-15T22:19:38.766Z,46.50
2017-11-15T22:22:06.295Z,49.47
2017-11-15T22:24:33.880Z,50.10
2017-11-15T22:27:01.403Z,52.47
2017-11-15T22:29:28.949Z,51.73
2017-11-15T22:31:56.469Z,53.10
2017-11-15T22:34:24.050Z,59.43
2017-11-15T22:36:52.024Z,56.60
2017-11-15T22:39:19.550Z,52.63
2017-11-15T22:41:47.066Z,51.67
2017-11-15T22:44:14.658Z,46.23
2017-11-15T22:46:42.173Z,48.90
2017-11-15T22:49:09.693Z,43.90
2017-11-15T22:51:37.266Z,39.83
2017-11-15T22:54:04.814Z,44.13
2017-11-15T22:56:32.334Z,50.50
2017-11-15T22:58:59.874Z,43.47
2017-11-15T23:01:27.402Z,53.67
2017-11-15T23:03:55.093Z,49.33
2017-11-15T23:06:22.614Z,48.30
2017-11-15T23:08:50.144Z,47.87
2017-11-15T23:11:17.698Z,48.53
2017-11-15T23:13:45.228Z,46.20
2017-11-15T23:16:12.975Z,41.73
2017-11-15T23:18:40.492Z,42.07
2017-11-15T23:21:08.009Z,45.90
2017-11-15T23:23:35.885Z,55.83
2017-11-15T23:26:03.446Z,52.93
2017-11-15T23:28:30.966Z,46.03
2017-11-15T23:30:58.634Z,52.23
2017-11-15T23:33:26.165Z,50.13
2017-11-15T23:35:53.839Z,61.73
2017-11-15T23:38:21.538Z,64.60
2017-11-15T23:40:49.067Z,54.67
2017-11-15T23:43:16.646Z,56.30
2017-11-15T23:45:44.179Z,101.03
2017-11-15T23:48:11.714Z,72.43
2017-11-15T23:50:39.290Z,57.87
2017-11-15T23:53:06.810Z,70.90
2017-11-15T23:55:34.381Z,80.27
2017-11-15T23:58:01.905Z,70.63
